Flight Track Log - Related Links

Times and Time Zones

All times are in EDT time to prevent confusion due to time zone crossing. See the N830QS flight status page for this flight to view local times or setup timezone preferences in your user account.

Time Position Orientation Groundspeed Altitude Reporting Facility
EDT Latitude Longitude Course Direction KTS MPH feet Rate Location/Type
Mon 10:18:38 AM 33.3000 -111.6500 132° Southeast 273 314 1,800  Level Phoenix TRACON
Mon 10:19:51 AM 33.2500 -111.5833 132° Southeast 211 243 4,500 2,110 Climbing Phoenix TRACON
Mon 10:21:03 AM 33.2000 -111.5333 140° Southeast 264 304 6,900 1,200 Climbing Phoenix TRACON
Mon 10:21:51 AM 33.1500 -111.5833 220° Southwest 284 327 6,900 278 Level Phoenix TRACON
Mon 10:22:51 AM 33.1333 -111.6667 257° West 278 320 7,400 830 Climbing Phoenix TRACON
Mon 10:23:25 AM 33.1219 -111.7153 254° West 277 319 8,200 2,063 Climbing Albuquerque Center
Mon 10:24:27 AM 33.0947 -111.8092 251° West 294 338 10,700 2,439 Climbing Albuquerque Center
Mon 10:25:28 AM 33.0719 -111.9097 255° West 310 357 13,200 2,439 Climbing Albuquerque Center
Mon 10:26:30 AM 33.0575 -112.0128 261° West 311 358 15,700 2,274 Climbing Albuquerque Center
Mon 10:27:32 AM 33.0411 -112.1178 259° West 317 365 17,900 1,984 Climbing Albuquerque Center
Mon 10:28:34 AM 33.0244 -112.2275 260° West 332 382 19,800 1,887 Climbing Albuquerque Center
Mon 10:29:36 AM 33.0033 -112.3639 260° West 346 398 21,800 1,597 Climbing Albuquerque Center
Mon 10:30:38 AM 32.9858 -112.4806 260° West 354 407 23,100 1,355 Climbing Albuquerque Center
Mon 10:31:40 AM 32.9669 -112.6003 259° West 366 421 24,600 1,355 Climbing Albuquerque Center
Mon 10:32:42 AM 32.9500 -112.7186 260° West 366 421 25,900 1,306 Climbing Albuquerque Center
Mon 10:33:44 AM 32.9350 -112.8378 262° West 366 421 27,300 1,016 Climbing Albuquerque Center
Mon 10:34:46 AM 32.9183 -112.9592 261° West 370 426 28,000 339 Climbing Albuquerque Center
Mon 10:35:48 AM 32.8964 -113.1156 261° West 395 455 28,000  Level Albuquerque Center
Mon 10:36:50 AM 32.8781 -113.2506 261° West 409 471 28,000  Level Albuquerque Center
Mon 10:37:52 AM 32.8611 -113.3858 262° West 413 475 28,000  Level Albuquerque Center
Mon 10:38:54 AM 32.8406 -113.5211 260° West 415 478 28,000  Level Albuquerque Center
Mon 10:39:56 AM 32.8225 -113.6569 261° West 415 478 28,000  Level Albuquerque Center
Mon 10:41:01 AM 32.7969 -113.8244 260° West 417 480 28,000  Level Los Angeles Center
Mon 10:42:03 AM 32.7794 -113.9589 261° West 415 478 28,000  Level Los Angeles Center
Mon 10:43:05 AM 32.7758 -114.0931 268° West 408 470 28,000  Level Los Angeles Center
Mon 10:44:07 AM 32.7736 -114.2269 269° West 407 468 28,000  Level Los Angeles Center
Mon 10:45:09 AM 32.7722 -114.3592 269° West 404 465 28,000  Level Los Angeles Center
Mon 10:46:11 AM 32.7703 -114.5197 269° West 404 465 28,000  Level Los Angeles Center
Mon 10:47:13 AM 32.7681 -114.6522 269° West 404 465 28,000  Level Los Angeles Center
Mon 10:48:15 AM 32.7647 -114.7853 268° West 403 464 28,000  Level Los Angeles Center
Mon 10:49:17 AM 32.7625 -114.9172 269° West 402 463 28,000 -919 Level Los Angeles Center
Mon 10:50:19 AM 32.7583 -115.0497 268° West 402 463 26,100 -1,887 Descending Los Angeles Center
Mon 10:51:21 AM 32.7572 -115.1803 269° West 398 458 24,100 -1,839 Descending Los Angeles Center
Mon 10:52:23 AM 32.7533 -115.3356 268° West 395 455 22,300 -1,597 Descending Los Angeles Center
Mon 10:53:25 AM 32.7506 -115.4669 269° West 397 457 20,800 -1,452 Descending Los Angeles Center
Mon 10:54:27 AM 32.7489 -115.5956 269° West 393 452 19,300 -1,548 Descending Los Angeles Center
Mon 10:55:29 AM 32.7475 -115.7183 269° West 376 433 17,600 -1,500 Descending Los Angeles Center
Mon 10:56:31 AM 32.7456 -115.8378 269° West 367 422 16,200 -1,403 Descending Los Angeles Center
Mon 10:57:33 AM 32.7442 -115.9536 269° West 355 409 14,700 -1,645 Descending Los Angeles Center
Mon 10:58:35 AM 32.7422 -116.0914 269° West 350 403 12,800 -1,632 Descending Los Angeles Center
Mon 10:59:38 AM 32.7400 -116.2036 269° West 343 395 11,300 -1,392 Descending Los Angeles Center
Mon 11:00:40 AM 32.7383 -116.3167 269° West 343 395 9,900 -726 Descending Los Angeles Center
Mon 11:01:42 AM 32.7356 -116.4303 268° West 342 394 9,800 -242 Descending Los Angeles Center
Mon 11:02:44 AM 32.7292 -116.5361 266° West 313 360 9,400 -871 Descending Los Angeles Center
Mon 11:03:46 AM 32.7158 -116.6303 260° West 293 337 8,000 -774 Descending Los Angeles Center
Mon 11:04:48 AM 32.7092 -116.7233 265° West 290 334 7,800 -968 Descending Los Angeles Center
Mon 11:05:50 AM 32.7069 -116.8122 268° West 275 316 6,000 -1,744 Descending Los Angeles Center
Mon 11:06:45 AM 32.6833 -116.9000 252° West 246 283 4,400 -1,304 Descending Southern California TRACON
Mon 11:07:45 AM 32.7000 -116.9667 287° West 220 253 3,500 -900 Descending Southern California TRACON
Mon 11:08:45 AM 32.7000 -117.0333 270° West 219 252 2,600 -950 Descending Southern California TRACON
Mon 11:09:45 AM 32.7167 -117.1000 287° West 196 226 1,600 -1,000 Descending Southern California TRACON
Mon 11:10:45 AM 32.7167 -117.1500 270° West 139 160 600 3,652 Descending Southern California TRACON
Mon 11:12:03 AM 32.7336 -117.2042 290° West 137 158 10,000 7,231 Climbing Los Angeles Center
Mon 11:14:00 AM 32.7333 -117.1833 90° East  Level FlightAware Approximate

Login

Don't have an account? Register now (free) for customized features, flight alerts, and more!